Date,TemperatureHighF,TemperatureAvgF,TemperatureLowF,DewpointHighF,DewpointAvgF,DewpointLowF,HumidityHigh,HumidityAvg,HumidityLow,PressureMaxIn,PressureMinIn,WindSpeedMaxMPH,WindSpeedAvgMPH,GustSpeedMaxMPH,PrecipitationSumIn
2013-1-1,21,14,8,-100,-100,-100,0,0,100,0.00,40.00,0,-999,0,0.00
2013-1-2,34,22,10,-100,-100,-100,0,0,100,0.00,40.00,0,-999,0,0.00
2013-1-3,32,26,18,-100,-100,-100,0,0,100,0.00,40.00,0,-999,0,0.00
2013-1-4,38,23,13,-100,-100,-100,0,0,100,0.00,40.00,0,-999,0,0.00
2013-1-5,34,24,16,-100,-100,-100,0,0,100,0.00,40.00,0,-999,0,0.00
2013-1-6,38,24,14,-100,-100,-100,0,0,100,0.00,40.00,0,-999,0,0.00
2013-1-7,40,32,25,-100,-100,-100,0,0,100,0.00,40.00,0,-999,0,0.00
2013-1-8,43,34,25,-100,-100,-100,0,0,100,0.00,40.00,0,-999,0,0.00
2013-1-9,46,33,25,-100,-100,-100,0,0,100,0.00,40.00,0,-999,0,0.00
2013-1-10,39,36,33,-100,-100,-100,0,0,100,0.00,40.00,0,-999,0,0.00
2013-1-11,52,42,29,-100,-100,-100,0,0,100,0.00,40.00,0,-999,0,0.00
2013-1-12,29,20,13,-100,-100,-100,0,0,100,0.00,40.00,0,-999,0,0.00
2013-1-13,20,15,9,-100,-100,-100,0,0,100,0.00,40.00,0,-999,0,0.00
2013-1-14,29,19,8,-100,-100,-100,0,0,100,0.00,40.00,0,-999,0,0.00
2013-1-15,34,24,15,-100,-100,-100,0,0,100,0.00,40.00,0,-999,0,0.00
2013-1-16,49,39,21,-100,-100,-100,0,0,100,0.00,40.00,0,-999,0,0.00
2013-1-17,34,29,22,-100,-100,-100,0,0,100,0.00,40.00,0,-999,0,0.00
2013-1-18,53,39,25,-100,-100,-100,0,0,100,0.00,40.00,0,-999,0,0.00
2013-1-19,50,38,28,-100,-100,-100,0,0,100,0.00,40.00,0,-999,0,0.00
2013-1-20,22,19,15,-100,-100,-100,0,0,100,0.00,40.00,0,-999,0,0.00
2013-1-21,16,11,6,-100,-100,-100,0,0,100,0.00,40.00,0,-999,0,0.00
2013-1-22,21,15,11,-100,-100,-100,0,0,100,0.00,40.00,0,-999,0,0.00
2013-1-23,29,20,12,-100,-100,-100,0,0,100,0.00,40.00,0,-999,0,0.00
2013-1-24,21,11,4,-100,-100,-100,0,0,100,0.00,40.00,0,-999,0,0.00
2013-1-25,46,28,14,-100,-100,-100,0,0,100,0.00,40.00,0,-999,0,0.00
2013-1-26,46,34,17,-100,-100,-100,0,0,100,0.00,40.00,0,-999,0,0.00
2013-1-27,42,37,33,-100,-100,-100,0,0,100,0.00,40.00,0,-999,0,0.00
2013-1-28,44,39,33,-100,-100,-100,0,0,100,0.00,40.00,0,-999,0,0.00
2013-1-29,40,34,32,-100,-100,-100,0,0,100,0.00,40.00,0,-999,0,0.00
2013-1-30,26,22,18,-100,-100,-100,0,0,100,0.00,40.00,0,-999,0,0.00
2013-1-31,8,6,3,-100,-100,-100,0,0,100,0.00,40.00,0,-999,0,0.00
2013-2-1,26,17,2,-100,-100,-100,0,0,100,0.00,40.00,0,-999,0,0.00
2013-2-2,38,29,21,-100,-100,-100,0,0,100,0.00,40.00,0,-999,0,0.00
2013-2-3,40,34,25,-100,-100,-100,0,0,100,0.00,40.00,0,-999,0,0.00
2013-2-4,32,27,23,-100,-100,-100,0,0,100,0.00,40.00,0,-999,0,0.00
2013-2-5,46,34,25,-100,-100,-100,0,0,100,0.00,40.00,0,-999,0,0.00
2013-2-6,50,40,29,-100,-100,-100,0,0,100,0.00,40.00,0,-999,0,0.00
2013-2-7,42,33,30,-100,-100,-100,0,0,100,0.00,40.00,0,-999,0,0.00
2013-2-8,32,29,25,-100,-100,-100,0,0,100,0.00,40.00,0,-999,0,0.00
2013-2-9,47,34,28,-100,-100,-100,0,0,100,0.00,40.00,0,-999,0,0.00
2013-2-10,41,36,31,-100,-100,-100,0,0,100,0.00,40.00,0,-999,0,0.00
2013-2-11,34,30,28,-100,-100,-100,0,0,100,0.00,40.00,0,-999,0,0.00
2013-2-12,40,30,21,-100,-100,-100,0,0,100,0.00,40.00,0,-999,0,0.00
2013-2-13,52,39,29,-100,-100,-100,0,0,100,0.00,40.00,0,-999,0,0.00
2013-2-14,42,37,27,-100,-100,-100,0,0,100,0.00,40.00,0,-999,0,0.00
2013-2-15,31,25,16,-100,-100,-100,0,0,100,0.00,40.00,0,-999,0,0.00
2013-2-16,31,26,16,-100,-100,-100,0,0,100,0.00,40.00,0,-999,0,0.00
2013-2-17,52,38,23,-100,-100,-100,0,0,100,0.00,40.00,0,-999,0,0.00
2013-2-18,40,33,21,-100,-100,-100,0,0,100,0.00,40.00,0,-999,0,0.00
2013-2-19,24,18,9,-100,-100,-100,0,0,100,0.00,40.00,0,-999,0,0.00
2013-2-20,26,16,7,-100,-100,-100,0,0,100,0.00,40.00,0,-999,0,0.00
2013-2-21,25,23,21,-100,-100,-100,0,0,100,0.00,40.00,0,-999,0,0.00
2013-2-22,23,20,15,-100,-100,-100,0,0,100,0.00,40.00,0,-999,0,0.00
2013-2-23,34,21,4,-100,-100,-100,0,0,100,0.00,40.00,0,-999,0,0.00
2013-2-24,41,28,18,-100,-100,-100,0,0,100,0.00,40.00,0,-999,0,0.00
2013-2-25,35,31,28,-100,-100,-100,0,0,100,0.00,40.00,0,-999,0,0.00
2013-2-26,32,29,26,-100,-100,-100,0,0,100,0.00,40.00,0,-999,0,0.00
2013-2-27,34,28,23,-100,-100,-100,0,0,100,0.00,40.00,0,-999,0,0.00
2013-2-28,31,27,25,-100,-100,-100,0,0,100,0.00,40.00,0,-999,0,0.00
2013-3-1,29,26,24,-100,-100,-100,0,0,100,0.00,40.00,0,-999,0,0.00
2013-3-2,34,28,21,-100,-100,-100,0,0,100,0.00,40.00,0,-999,0,0.00
2013-3-3,39,32,25,-100,-100,-100,0,0,100,0.00,40.00,0,-999,0,0.00
2013-3-4,43,36,30,-100,-100,-100,0,0,100,0.00,40.00,0,-999,0,0.00
2013-3-5,29,27,25,-100,-100,-100,0,0,100,0.00,40.00,0,-999,0,0.00
2013-3-6,36,28,23,-100,-100,-100,0,0,100,0.00,40.00,0,-999,0,0.00
2013-3-7,50,33,22,-100,-100,-100,0,0,100,0.00,40.00,0,-999,0,0.00
2013-3-8,53,42,30,-100,-100,-100,0,0,100,0.00,40.00,0,-999,0,0.00
2013-3-9,52,46,38,-100,-100,-100,0,0,100,0.00,40.00,0,-999,0,0.00
2013-3-10,39,28,25,-100,-100,-100,0,0,100,0.00,40.00,0,-999,0,0.00
2013-3-11,30,24,21,-100,-100,-100,0,0,100,0.00,40.00,0,-999,0,0.00
2013-3-12,32,28,20,-100,-100,-100,0,0,100,0.00,40.00,0,-999,0,0.00
2013-3-13,38,28,18,-100,-100,-100,0,0,100,0.00,40.00,0,-999,0,0.00
2013-3-14,54,39,30,-100,-100,-100,0,0,100,0.00,40.00,0,-999,0,0.00
2013-3-15,61,47,34,-100,-100,-100,0,0,100,0.00,40.00,0,-999,0,0.00
2013-3-16,39,33,29,-100,-100,-100,0,0,100,0.00,40.00,0,-999,0,0.00
2013-3-17,44,32,26,-100,-100,-100,0,0,100,0.00,40.00,0,-999,0,0.00
2013-3-18,36,33,29,-100,-100,-100,0,0,100,0.00,40.00,0,-999,0,0.00
2013-3-19,47,32,22,-100,-100,-100,0,0,100,0.00,40.00,0,-999,0,0.00
2013-3-20,33,26,17,-100,-100,-100,0,0,100,0.00,40.00,0,-999,0,0.00
2013-3-21,34,27,20,-100,-100,-100,0,0,100,0.00,40.00,0,-999,0,0.00
2013-3-22,36,31,26,-100,-100,-100,0,0,100,0.00,40.00,0,-999,0,0.00
2013-3-23,39,32,29,-100,-100,-100,0,0,100,0.00,40.00,0,-999,0,0.00
2013-3-24,28,26,25,-100,-100,-100,0,0,100,0.00,40.00,0,-999,0,0.00
2013-3-25,29,27,24,-100,-100,-100,0,0,100,0.00,40.00,0,-999,0,0.00
2013-3-26,40,30,21,-100,-100,-100,0,0,100,0.00,40.00,0,-999,0,0.00
2013-3-27,54,39,25,-100,-100,-100,0,0,100,0.00,40.00,0,-999,0,0.00
2013-3-28,61,45,32,-100,-100,-100,0,0,100,0.00,40.00,0,-999,0,0.00
2013-3-29,69,46,33,-100,-100,-100,0,0,100,0.00,40.00,0,-999,0,0.00
2013-3-30,66,56,47,-100,-100,-100,0,0,100,0.00,40.00,0,-999,0,0.00
2013-3-31,56,46,37,-100,-100,-100,0,0,100,0.00,40.00,0,-999,0,0.00
2013-4-1,40,31,24,-100,-100,-100,0,0,100,0.00,40.00,0,-999,0,0.00
2013-4-2,53,37,25,-100,-100,-100,0,0,100,0.00,40.00,0,-999,0,0.00
2013-4-3,53,41,29,-100,-100,-100,0,0,100,0.00,40.00,0,-999,0,0.00
2013-4-4,62,46,31,-100,-100,-100,0,0,100,0.00,40.00,0,-999,0,0.00
2013-4-5,67,48,35,-100,-100,-100,0,0,100,0.00,40.00,0,-999,0,0.00
2013-4-6,67,56,51,-100,-100,-100,0,0,100,0.00,40.00,0,-999,0,0.00
2013-4-7,73,57,44,-100,-100,-100,0,0,100,0.00,40.00,0,-999,0,0.00
2013-4-8,69,60,48,-100,-100,-100,0,0,100,0.00,40.00,0,-999,0,0.00
2013-4-9,62,48,35,-100,-100,-100,0,0,100,0.00,40.00,0,-999,0,0.00
2013-4-10,39,36,34,-100,-100,-100,0,0,100,0.00,40.00,0,-999,0,0.00
2013-4-11,36,33,32,-100,-100,-100,0,0,100,0.00,40.00,0,-999,0,0.00
2013-4-12,40,35,32,-100,-100,-100,0,0,100,0.00,40.00,0,-999,0,0.00
2013-4-13,52,38,28,-100,-100,-100,0,0,100,0.00,40.00,0,-999,0,0.00
2013-4-14,65,54,43,-100,-100,-100,0,0,100,0.00,40.00,0,-999,0,0.00
2013-4-15,44,39,36,-100,-100,-100,0,0,100,0.00,40.00,0,-999,0,0.00
2013-4-16,52,43,36,-100,-100,-100,0,0,100,0.00,40.00,0,-999,0,0.00
2013-4-17,45,42,39,-100,-100,-100,0,0,100,0.00,40.00,0,-999,0,0.00
2013-4-18,36,33,30,-100,-100,-100,0,0,100,0.00,40.00,0,-999,0,0.00
2013-4-19,43,35,29,-100,-100,-100,0,0,100,0.00,40.00,0,-999,0,0.00
2013-4-20,47,35,29,-100,-100,-100,0,0,100,0.00,40.00,0,-999,0,0.00
2013-4-21,64,52,42,-100,-100,-100,0,0,100,0.00,40.00,0,-999,0,0.00
2013-4-22,55,46,33,-100,-100,-100,0,0,100,0.00,40.00,0,-999,0,0.00
2013-4-23,38,32,28,-100,-100,-100,0,0,100,0.00,40.00,0,-999,0,0.00
2013-4-24,58,41,28,-100,-100,-100,0,0,100,0.00,40.00,0,-999,0,0.00
2013-4-25,67,49,30,-100,-100,-100,0,0,100,0.00,40.00,0,-999,0,0.00
2013-4-26,69,57,47,-100,-100,-100,0,0,100,0.00,40.00,0,-999,0,0.00
2013-4-27,66,52,44,-100,-100,-100,0,0,100,0.00,40.00,0,-999,0,0.00
2013-4-28,79,64,46,-100,-100,-100,0,0,100,0.00,40.00,0,-999,0,0.00
2013-4-29,84,67,57,-100,-100,-100,0,0,100,0.00,40.00,0,-999,0,0.00
2013-4-30,75,70,67,-100,-100,-100,0,0,100,0.00,40.00,0,-999,0,0.00
2013-5-1,59,42,33,-100,-100,-100,0,0,100,0.00,40.00,0,-999,0,0.00
2013-5-2,47,39,32,-100,-100,-100,0,0,100,0.00,40.00,0,-999,0,0.00
2013-5-3,44,39,33,-100,-100,-100,0,0,100,0.00,40.00,0,-999,0,0.00
2013-5-4,43,38,34,-100,-100,-100,0,0,100,0.00,40.00,0,-999,0,0.00
2013-5-5,53,45,41,-100,-100,-100,0,0,100,0.00,40.00,0,-999,0,0.00
2013-5-6,68,56,49,-100,-100,-100,0,0,100,0.00,40.00,0,-999,0,0.00
2013-5-7,71,58,43,-100,-100,-100,0,0,100,0.00,40.00,0,-999,0,0.00
2013-5-8,70,62,56,-100,-100,-100,0,0,100,0.00,40.00,0,-999,0,0.00
2013-5-9,67,61,56,-100,-100,-100,0,0,100,0.00,40.00,0,-999,0,0.00
2013-5-10,67,58,50,-100,-100,-100,0,0,100,0.00,40.00,0,-999,0,0.00
2013-5-11,58,53,47,-100,-100,-100,0,0,100,0.00,40.00,0,-999,0,0.00
2013-5-12,66,50,36,-100,-100,-100,0,0,100,0.00,40.00,0,-999,0,0.00
2013-5-13,78,61,47,-100,-100,-100,0,0,100,0.00,40.00,0,-999,0,0.00
2013-5-14,97,76,57,-100,-100,-100,0,0,100,0.00,40.00,0,-999,0,0.00
2013-5-15,83,72,62,-100,-100,-100,0,0,100,0.00,40.00,0,-999,0,0.00
2013-5-16,83,72,63,-100,-100,-100,0,0,100,0.00,40.00,0,-999,0,0.00
2013-5-17,85,73,62,-100,-100,-100,0,0,100,0.00,40.00,0,-999,0,0.00
2013-5-18,85,72,61,-100,-100,-100,0,0,100,0.00,40.00,0,-999,0,0.00
2013-5-19,78,67,61,-100,-100,-100,0,0,100,0.00,40.00,0,-999,0,0.00
2013-5-20,74,64,57,-100,-100,-100,0,0,100,0.00,40.00,0,-999,0,0.00
2013-5-21,62,60,54,-100,-100,-100,0,0,100,0.00,40.00,0,-999,0,0.00
2013-5-22,59,56,53,-100,-100,-100,0,0,100,0.00,40.00,0,-999,0,0.00
2013-5-23,74,60,52,-100,-100,-100,0,0,100,0.00,40.00,0,-999,0,0.00
2013-5-24,73,65,48,-100,-100,-100,0,0,100,0.00,40.00,0,-999,0,0.00
2013-5-25,79,67,58,-100,-100,-100,0,0,100,0.00,40.00,0,-999,0,0.00
2013-5-26,81,71,61,-100,-100,-100,0,0,100,0.00,40.00,0,-999,0,0.00
2013-5-27,77,66,59,-100,-100,-100,0,0,100,0.00,40.00,0,-999,0,0.00
2013-5-28,79,69,62,-100,-100,-100,0,0,100,0.00,40.00,0,-999,0,0.00
2013-5-29,73,68,61,-100,-100,-100,0,0,100,0.00,40.00,0,-999,0,0.00
2013-5-30,73,65,59,-100,-100,-100,0,0,100,0.00,40.00,0,-999,0,0.00
2013-5-31,77,69,59,-100,-100,-100,0,0,100,0.00,40.00,0,-999,0,0.00
2013-6-1,62,58,55,-100,-100,-100,0,0,100,0.00,40.00,0,-999,0,0.00
2013-6-2,68,57,51,-100,-100,-100,0,0,100,0.00,40.00,0,-999,0,0.00
2013-6-3,74,60,49,-100,-100,-100,0,0,100,0.00,40.00,0,-999,0,0.00
2013-6-4,71,63,60,-100,-100,-100,0,0,100,0.00,40.00,0,-999,0,0.00
2013-6-5,73,65,58,-100,-100,-100,0,0,100,0.00,40.00,0,-999,0,0.00
2013-6-6,70,62,54,-100,-100,-100,0,0,100,0.00,40.00,0,-999,0,0.00
2013-6-7,73,64,54,-100,-100,-100,0,0,100,0.00,40.00,0,-999,0,0.00
2013-6-8,69,62,55,-100,-100,-100,0,0,100,0.00,40.00,0,-999,0,0.00
2013-6-9,68,63,59,-100,-100,-100,0,0,100,0.00,40.00,0,-999,0,0.00
2013-6-10,76,68,59,-100,-100,-100,0,0,100,0.00,40.00,0,-999,0,0.00
2013-6-11,87,73,66,-100,-100,-100,0,0,100,0.00,40.00,0,-999,0,0.00
2013-6-12,84,77,66,-100,-100,-100,0,0,100,0.00,40.00,0,-999,0,0.00
2013-6-13,79,68,61,-100,-100,-100,0,0,100,0.00,40.00,0,-999,0,0.00
2013-6-14,84,71,63,-100,-100,-100,0,0,100,0.00,40.00,0,-999,0,0.00
2013-6-15,78,71,65,-100,-100,-100,0,0,100,0.00,40.00,0,-999,0,0.00
2013-6-16,85,76,67,-100,-100,-100,0,0,100,0.00,40.00,0,-999,0,0.00
2013-6-17,87,77,65,-100,-100,-100,0,0,100,0.00,40.00,0,-999,0,0.00
2013-6-18,83,72,63,-100,-100,-100,0,0,100,0.00,40.00,0,-999,0,0.00
2013-6-19,85,74,64,-100,-100,-100,0,0,100,0.00,40.00,0,-999,0,0.00
2013-6-20,84,74,68,-100,-100,-100,0,0,100,0.00,40.00,0,-999,0,0.00
2013-6-22,90,82,71,-100,-100,-100,0,0,100,0.00,40.00,0,-999,0,0.00
2013-6-23,80,73,65,-100,-100,-100,0,0,100,0.00,40.00,0,-999,0,0.00
2013-6-24,82,75,72,-100,-100,-100,0,0,100,0.00,40.00,0,-999,0,0.00
2013-6-25,83,76,73,-100,-100,-100,0,0,100,0.00,40.00,0,-999,0,0.00
2013-6-26,90,81,73,-100,-100,-100,0,0,100,0.00,40.00,0,-999,0,0.00
2013-6-27,83,72,69,-100,-100,-100,0,0,100,0.00,40.00,0,-999,0,0.00
2013-6-28,82,76,70,-100,-100,-100,0,0,100,0.00,40.00,0,-999,0,0.00
2013-6-29,77,71,65,-100,-100,-100,0,0,100,0.00,40.00,0,-999,0,0.00
2013-6-30,80,69,60,-100,-100,-100,0,0,100,0.00,40.00,0,-999,0,0.00
2013-7-1,83,66,55,-100,-100,-100,0,0,100,0.00,40.00,0,-999,0,0.00
2013-7-2,83,68,60,-100,-100,-100,0,0,100,0.00,40.00,0,-999,0,0.00
2013-7-3,79,68,58,-100,-100,-100,0,0,100,0.00,40.00,0,-999,0,0.00
2013-7-4,85,73,61,-100,-100,-100,0,0,100,0.00,40.00,0,-999,0,0.00
2013-7-5,84,76,66,-100,-100,-100,0,0,100,0.00,40.00,0,-999,0,0.00
2013-7-6,85,74,67,-100,-100,-100,0,0,100,0.00,40.00,0,-999,0,0.00
2013-7-7,90,80,73,-100,-100,-100,0,0,100,0.00,40.00,0,-999,0,0.00
2013-7-8,84,80,76,-100,-100,-100,0,0,100,0.00,40.00,0,-999,0,0.00
2013-7-9,94,84,73,-100,-100,-100,0,0,100,0.00,40.00,0,-999,0,0.00
2013-7-10,85,76,71,-100,-100,-100,0,0,100,0.00,40.00,0,-999,0,0.00
2013-7-11,86,72,65,-100,-100,-100,0,0,100,0.00,40.00,0,-999,0,0.00
2013-7-12,90,79,68,-100,-100,-100,0,0,100,0.00,40.00,0,-999,0,0.00
2013-7-13,84,77,71,-100,-100,-100,0,0,100,0.00,40.00,0,-999,0,0.00
2013-7-14,87,78,66,-100,-100,-100,0,0,100,0.00,40.00,0,-999,0,0.00
2013-7-15,85,75,65,-100,-100,-100,0,0,100,0.00,40.00,0,-999,0,0.00
2013-7-16,88,79,69,-100,-100,-100,0,0,100,0.00,40.00,0,-999,0,0.00
2013-7-17,90,81,73,-100,-100,-100,0,0,100,0.00,40.00,0,-999,0,0.00
2013-7-18,91,83,73,-100,-100,-100,0,0,100,0.00,40.00,0,-999,0,0.00
2013-7-19,94,83,73,-100,-100,-100,0,0,100,0.00,40.00,0,-999,0,0.00
2013-7-20,88,76,67,-100,-100,-100,0,0,100,0.00,40.00,0,-999,0,0.00
2013-7-21,87,78,71,-100,-100,-100,0,0,100,0.00,40.00,0,-999,0,0.00
2013-7-22,92,79,69,-100,-100,-100,0,0,100,0.00,40.00,0,-999,0,0.00
2013-7-23,82,73,66,-100,-100,-100,0,0,100,0.00,40.00,0,-999,0,0.00
2013-7-24,84,72,63,-100,-100,-100,0,0,100,0.00,40.00,0,-999,0,0.00
2013-7-25,80,73,67,-100,-100,-100,0,0,100,0.00,40.00,0,-999,0,0.00
2013-7-26,74,70,65,-100,-100,-100,0,0,100,0.00,40.00,0,-999,0,0.00
2013-7-27,73,65,56,-100,-100,-100,0,0,100,0.00,40.00,0,-999,0,0.00
2013-7-28,80,64,49,-100,-100,-100,0,0,100,0.00,40.00,0,-999,0,0.00
2013-7-29,66,62,58,-100,-100,-100,0,0,100,0.00,40.00,0,-999,0,0.00
2013-7-30,75,70,65,-100,-100,-100,0,0,100,0.00,40.00,0,-999,0,0.00
2013-7-31,85,69,63,-100,-100,-100,0,0,100,0.00,40.00,0,-999,0,0.00
2013-8-1,83,74,65,-100,-100,-100,0,0,100,0.00,40.00,0,-999,0,0.00
2013-8-2,84,76,67,-100,-100,-100,0,0,100,0.00,40.00,0,-999,0,0.00
2013-8-3,77,70,64,-100,-100,-100,0,0,100,0.00,40.00,0,-999,0,0.00
2013-8-4,76,70,63,-100,-100,-100,0,0,100,0.00,40.00,0,-999,0,0.00
2013-8-5,86,73,68,-100,-100,-100,0,0,100,0.00,40.00,0,-999,0,0.00
2013-8-6,88,77,69,-100,-100,-100,0,0,100,0.00,40.00,0,-999,0,0.00
2013-8-7,84,76,69,-100,-100,-100,0,0,100,0.00,40.00,0,-999,0,0.00
2013-8-8,79,69,63,-100,-100,-100,0,0,100,0.00,40.00,0,-999,0,0.00
2013-8-9,81,74,62,-100,-100,-100,0,0,100,0.00,40.00,0,-999,0,0.00
2013-8-10,83,68,57,-100,-100,-100,0,0,100,0.00,40.00,0,-999,0,0.00
2013-8-11,86,73,64,-100,-100,-100,0,0,100,0.00,40.00,0,-999,0,0.00
2013-8-12,87,76,69,-100,-100,-100,0,0,100,0.00,40.00,0,-999,0,0.00
2013-8-13,80,70,63,-100,-100,-100,0,0,100,0.00,40.00,0,-999,0,0.00
2013-8-14,76,66,59,-100,-100,-100,0,0,100,0.00,40.00,0,-999,0,0.00
2013-8-15,65,63,60,-100,-100,-100,0,0,100,0.00,40.00,0,-999,0,0.00
2013-8-16,73,68,62,-100,-100,-100,0,0,100,0.00,40.00,0,-999,0,0.00
2013-8-17,78,69,61,-100,-100,-100,0,0,100,0.00,40.00,0,-999,0,0.00
2013-8-18,79,66,58,-100,-100,-100,0,0,100,0.00,40.00,0,-999,0,0.00
2013-8-19,83,72,63,-100,-100,-100,0,0,100,0.00,40.00,0,-999,0,0.00
2013-8-20,89,80,69,-100,-100,-100,0,0,100,0.00,40.00,0,-999,0,0.00
2013-8-21,89,76,71,-100,-100,-100,0,0,100,0.00,40.00,0,-999,0,0.00
2013-8-22,84,76,69,-100,-100,-100,0,0,100,0.00,40.00,0,-999,0,0.00
2013-8-23,87,77,69,-100,-100,-100,0,0,100,0.00,40.00,0,-999,0,0.00
2013-8-24,91,80,73,-100,-100,-100,0,0,100,0.00,40.00,0,-999,0,0.00
2013-8-25,94,84,71,-100,-100,-100,0,0,100,0.00,40.00,0,-999,0,0.00
2013-8-26,93,83,74,-100,-100,-100,0,0,100,0.00,40.00,0,-999,0,0.00
2013-8-27,83,78,73,-100,-100,-100,0,0,100,0.00,40.00,0,-999,0,0.00
2013-8-28,94,90,86,-100,-100,-100,0,0,100,0.00,40.00,0,-999,0,0.00
2013-8-29,94,80,70,-100,-100,-100,0,0,100,0.00,40.00,0,-999,0,0.00
2013-8-30,97,86,71,-100,-100,-100,0,0,100,0.00,40.00,0,-999,0,0.00
2013-8-31,92,80,72,-100,-100,-100,0,0,100,0.00,40.00,0,-999,0,0.00
2013-9-1,80,76,68,-100,-100,-100,0,0,100,0.00,40.00,0,-999,0,0.00
2013-9-2,80,69,61,-100,-100,-100,0,0,100,0.00,40.00,0,-999,0,0.00
2013-9-3,83,68,56,-100,-100,-100,0,0,100,0.00,40.00,0,-999,0,0.00
2013-9-4,84,75,67,-100,-100,-100,0,0,100,0.00,40.00,0,-999,0,0.00
2013-9-5,80,73,66,-100,-100,-100,0,0,100,0.00,40.00,0,-999,0,0.00
2013-9-6,87,75,66,-100,-100,-100,0,0,100,0.00,40.00,0,-999,0,0.00
2013-9-7,91,80,71,-100,-100,-100,0,0,100,0.00,40.00,0,-999,0,0.00
2013-9-8,92,77,72,-100,-100,-100,0,0,100,0.00,40.00,0,-999,0,0.00
2013-9-9,95,82,70,-100,-100,-100,0,0,100,0.00,40.00,0,-999,0,0.00
2013-9-10,94,81,67,-100,-100,-100,0,0,100,0.00,40.00,0,-999,0,0.00
2013-9-11,83,74,69,-100,-100,-100,0,0,100,0.00,40.00,0,-999,0,0.00
2013-9-12,77,72,65,-100,-100,-100,0,0,100,0.00,40.00,0,-999,0,0.00
2013-9-13,76,64,54,-100,-100,-100,0,0,100,0.00,40.00,0,-999,0,0.00
2013-9-14,75,62,51,-100,-100,-100,0,0,100,0.00,40.00,0,-999,0,0.00
2013-9-15,68,64,62,-100,-100,-100,0,0,100,0.00,40.00,0,-999,0,0.00
2013-9-16,69,62,56,-100,-100,-100,0,0,100,0.00,40.00,0,-999,0,0.00
2013-9-17,72,64,56,-100,-100,-100,0,0,100,0.00,40.00,0,-999,0,0.00
2013-9-18,77,73,68,-100,-100,-100,0,0,100,0.00,40.00,0,-999,0,0.00
2013-9-19,83,73,61,-100,-100,-100,0,0,100,0.00,40.00,0,-999,0,0.00
2013-9-20,69,60,52,-100,-100,-100,0,0,100,0.00,40.00,0,-999,0,0.00
2013-9-21,76,58,46,-100,-100,-100,0,0,100,0.00,40.00,0,-999,0,0.00
2013-9-22,81,67,53,-100,-100,-100,0,0,100,0.00,40.00,0,-999,0,0.00
2013-9-23,77,65,54,-100,-100,-100,0,0,100,0.00,40.00,0,-999,0,0.00
2013-9-24,70,66,62,-100,-100,-100,0,0,100,0.00,40.00,0,-999,0,0.00
2013-9-25,80,66,53,-100,-100,-100,0,0,100,0.00,40.00,0,-999,0,0.00
2013-9-26,84,73,59,-100,-100,-100,0,0,100,0.00,40.00,0,-999,0,0.00
2013-9-27,85,74,69,-100,-100,-100,0,0,100,0.00,40.00,0,-999,0,0.00
2013-9-28,72,64,53,-100,-100,-100,0,0,100,0.00,40.00,0,-999,0,0.00
2013-9-29,76,62,45,-100,-100,-100,0,0,100,0.00,40.00,0,-999,0,0.00
2013-9-30,80,64,51,-100,-100,-100,0,0,100,0.00,40.00,0,-999,0,0.00
2013-10-1,71,68,65,-100,-100,-100,0,0,100,0.00,40.00,0,-999,0,0.00
2013-10-2,85,67,57,-100,-100,-100,0,0,100,0.00,40.00,0,-999,0,0.00
2013-10-3,82,71,61,-100,-100,-100,0,0,100,0.00,40.00,0,-999,0,0.00
2013-10-4,81,71,62,-100,-100,-100,0,0,100,0.00,40.00,0,-999,0,0.00
2013-10-5,54,48,42,-100,-100,-100,0,0,100,0.00,40.00,0,-999,0,0.00
2013-10-6,51,47,43,-100,-100,-100,0,0,100,0.00,40.00,0,-999,0,0.00
2013-10-7,75,56,42,-100,-100,-100,0,0,100,0.00,40.00,0,-999,0,0.00
2013-10-8,76,59,45,-100,-100,-100,0,0,100,0.00,40.00,0,-999,0,0.00
2013-10-9,77,62,52,-100,-100,-100,0,0,100,0.00,40.00,0,-999,0,0.00
2013-10-10,79,66,53,-100,-100,-100,0,0,100,0.00,40.00,0,-999,0,0.00
2013-10-11,78,66,59,-100,-100,-100,0,0,100,0.00,40.00,0,-999,0,0.00
2013-10-12,66,53,48,-100,-100,-100,0,0,100,0.00,40.00,0,-999,0,0.00
2013-10-13,70,56,39,-100,-100,-100,0,0,100,0.00,40.00,0,-999,0,0.00
2013-10-14,58,52,47,-100,-100,-100,0,0,100,0.00,40.00,0,-999,0,0.00
2013-10-15,58,49,46,-100,-100,-100,0,0,100,0.00,40.00,0,-999,0,0.00
2013-10-16,55,47,43,-100,-100,-100,0,0,100,0.00,40.00,0,-999,0,0.00
2013-10-17,58,45,38,-100,-100,-100,0,0,100,0.00,40.00,0,-999,0,0.00
2013-10-18,51,43,37,-100,-100,-100,0,0,100,0.00,40.00,0,-999,0,0.00
2013-10-19,63,49,32,-100,-100,-100,0,0,100,0.00,40.00,0,-999,0,0.00
2013-10-20,62,49,41,-100,-100,-100,0,0,100,0.00,40.00,0,-999,0,0.00
2013-10-21,54,43,36,-100,-100,-100,0,0,100,0.00,40.00,0,-999,0,0.00
2013-10-22,47,43,39,-100,-100,-100,0,0,100,0.00,40.00,0,-999,0,0.00
2013-10-23,44,39,32,-100,-100,-100,0,0,100,0.00,40.00,0,-999,0,0.00
2013-10-24,49,38,30,-100,-100,-100,0,0,100,0.00,40.00,0,-999,0,0.00
2013-10-25,57,40,27,-100,-100,-100,0,0,100,0.00,40.00,0,-999,0,0.00
2013-10-26,51,45,36,-100,-100,-100,0,0,100,0.00,40.00,0,-999,0,0.00
2013-10-27,65,40,27,-100,-100,-100,0,0,100,0.00,40.00,0,-999,0,0.00
2013-10-28,54,46,40,-100,-100,-100,0,0,100,0.00,40.00,0,-999,0,0.00
2013-10-29,53,48,43,-100,-100,-100,0,0,100,0.00,40.00,0,-999,0,0.00
2013-10-30,57,51,44,-100,-100,-100,0,0,100,0.00,40.00,0,-999,0,0.00
2013-10-31,56,46,40,-100,-100,-100,0,0,100,0.00,40.00,0,-999,0,0.00
2013-11-1,58,46,41,-100,-100,-100,0,0,100,0.00,40.00,0,-999,0,0.00
2013-11-2,54,46,39,-100,-100,-100,0,0,100,0.00,40.00,0,-999,0,0.00
2013-11-3,55,48,35,-100,-100,-100,0,0,100,0.00,40.00,0,-999,0,0.00
2013-11-4,54,49,41,-100,-100,-100,0,0,100,0.00,40.00,0,-999,0,0.00
2013-11-5,46,42,36,-100,-100,-100,0,0,100,0.00,40.00,0,-999,0,0.00
2013-11-6,43,35,32,-100,-100,-100,0,0,100,0.00,40.00,0,-999,0,0.00
2013-11-7,47,36,30,-100,-100,-100,0,0,100,0.00,40.00,0,-999,0,0.00
2013-11-8,62,48,30,-100,-100,-100,0,0,100,0.00,40.00,0,-999,0,0.00
2013-11-9,60,51,42,-100,-100,-100,0,0,100,0.00,40.00,0,-999,0,0.00
2013-11-10,51,44,32,-100,-100,-100,0,0,100,0.00,40.00,0,-999,0,0.00
2013-11-11,43,35,23,-100,-100,-100,0,0,100,0.00,40.00,0,-999,0,0.00
2013-11-12,31,24,14,-100,-100,-100,0,0,100,0.00,40.00,0,-999,0,0.00
2013-11-13,51,32,21,-100,-100,-100,0,0,100,0.00,40.00,0,-999,0,0.00
2013-11-14,54,40,29,-100,-100,-100,0,0,100,0.00,40.00,0,-999,0,0.00
2013-11-15,55,41,27,-100,-100,-100,0,0,100,0.00,40.00,0,-999,0,0.00
2013-11-16,65,52,45,-100,-100,-100,0,0,100,0.00,40.00,0,-999,0,0.00
2013-11-17,56,49,43,-100,-100,-100,0,0,100,0.00,40.00,0,-999,0,0.00
2013-11-18,55,40,30,-100,-100,-100,0,0,100,0.00,40.00,0,-999,0,0.00
2013-11-19,60,44,33,-100,-100,-100,0,0,100,0.00,40.00,0,-999,0,0.00
2013-11-20,53,45,37,-100,-100,-100,0,0,100,0.00,40.00,0,-999,0,0.00
2013-11-21,37,30,21,-100,-100,-100,0,0,100,0.00,40.00,0,-999,0,0.00
2013-11-22,29,21,16,-100,-100,-100,0,0,100,0.00,40.00,0,-999,0,0.00
2013-11-23,24,19,13,-100,-100,-100,0,0,100,0.00,40.00,0,-999,0,0.00
2013-11-24,27,20,10,-100,-100,-100,0,0,100,0.00,40.00,0,-999,0,0.00
2013-11-25,43,32,25,-100,-100,-100,0,0,100,0.00,40.00,0,-999,0,0.00
2013-11-26,33,27,20,-100,-100,-100,0,0,100,0.00,40.00,0,-999,0,0.00
2013-11-27,32,23,11,-100,-100,-100,0,0,100,0.00,40.00,0,-999,0,0.00
2013-11-28,32,28,22,-100,-100,-100,0,0,100,0.00,40.00,0,-999,0,0.00
2013-11-29,43,33,19,-100,-100,-100,0,0,100,0.00,40.00,0,-999,0,0.00
2013-11-30,53,36,24,-100,-100,-100,0,0,100,0.00,40.00,0,-999,0,0.00
2013-12-1,50,35,25,-100,-100,-100,0,0,100,0.00,40.00,0,-999,0,0.00
2013-12-2,62,42,32,-100,-100,-100,0,0,100,0.00,40.00,0,-999,0,0.00
2013-12-3,40,37,33,-100,-100,-100,0,0,100,0.00,40.00,0,-999,0,0.00
2013-12-4,36,24,15,-100,-100,-100,0,0,100,0.00,40.00,0,-999,0,0.00
2013-12-5,17,14,8,-100,-100,-100,0,0,100,0.00,40.00,0,-999,0,0.00
2013-12-6,11,5,1,-100,-100,-100,0,0,100,0.00,40.00,0,-999,0,0.00
2013-12-7,14,8,1,-100,-100,-100,0,0,100,0.00,40.00,0,-999,0,0.00
2013-12-8,19,16,12,-100,-100,-100,0,0,100,0.00,40.00,0,-999,0,0.00
2013-12-9,13,8,2,-100,-100,-100,0,0,100,0.00,40.00,0,-999,0,0.00
2013-12-10,26,20,10,-100,-100,-100,0,0,100,0.00,40.00,0,-999,0,0.00
2013-12-11,26,8,5,-100,-100,-100,0,0,100,0.00,40.00,0,-999,0,0.00
2013-12-12,32,16,3,-100,-100,-100,0,0,100,0.00,40.00,0,-999,0,0.00
2013-12-13,32,24,16,-100,-100,-100,0,0,100,0.00,40.00,0,-999,0,0.00
2013-12-14,23,18,15,-100,-100,-100,0,0,100,0.00,40.00,0,-999,0,0.00
2013-12-15,30,22,16,-100,-100,-100,0,0,100,0.00,40.00,0,-999,0,0.00
2013-12-16,44,27,14,-100,-100,-100,0,0,100,0.00,40.00,0,-999,0,0.00
2013-12-17,40,32,25,-100,-100,-100,0,0,100,0.00,40.00,0,-999,0,0.00
2013-12-18,54,38,24,-100,-100,-100,0,0,100,0.00,40.00,0,-999,0,0.00
2013-12-19,35,31,25,-100,-100,-100,0,0,100,0.00,40.00,0,-999,0,0.00
2013-12-20,19,16,13,-100,-100,-100,0,0,100,0.00,40.00,0,-999,0,0.00
2013-12-21,24,22,20,-100,-100,-100,0,0,100,0.00,40.00,0,-999,0,0.00
2013-12-22,20,16,8,-100,-100,-100,0,0,100,0.00,40.00,0,-999,0,0.00
2013-12-23,11,6,2,-100,-100,-100,0,0,100,0.00,40.00,0,-999,0,0.00
2013-12-24,25,14,-2,-100,-100,-100,0,0,100,0.00,40.00,0,-999,0,0.00
2013-12-25,39,28,22,-100,-100,-100,0,0,100,0.00,40.00,0,-999,0,0.00
2013-12-26,46,33,21,-100,-100,-100,0,0,100,0.00,40.00,0,-999,0,0.00
2013-12-27,58,38,18,-100,-100,-100,0,0,100,0.00,40.00,0,-999,0,0.00
2013-12-28,54,37,15,-100,-100,-100,0,0,100,0.00,40.00,0,-999,0,0.00
2013-12-29,18,9,4,-100,-100,-100,0,0,100,0.00,40.00,0,-999,0,0.00
2013-12-30,33,20,6,-100,-100,-100,0,0,100,0.00,40.00,0,-999,0,0.00
2013-12-31,35,16,8,-100,-100,-100,0,0,100,0.00,40.00,0,-999,0,0.00
2014-1-1,12,8,4,-100,-100,-100,0,0,100,0.00,40.00,0,-999,0,0.00
2014-1-2,10,7,3,-100,-100,-100,0,0,100,0.00,40.00,0,-999,0,0.00